Cheddington, United Kingdom
Current Conditions -  °F | °C
As of 5:50 AM on Thursday 27 Nov 2014 (Local Time) from EGGW Reporting Station
Moderate Fog Moderate Fog  
Wind Chill: 46°   Ceiling: 200
Heat Index: 46°   Visibility: 0.37mi
Dew Point: 46°   Wind: 0mph
Humidity: 100%   Direction: NA
Pressure: 29.62"   Gusts: NA
Location:  51.85°N, 0.66°W
Report Text: EGGW 270550Z 00000KT 0600 R08/0550 FG OVC002 08/08 Q1003
Loading
Personal Weather Stations






























Interactive Weather Map New forecast layout! Learn more

10-Day Weather Forecast

Advertisements
Track Severe Weather on mobile